createdAt,value
2022-12-01T00:02:22.253Z,7.30
2022-12-01T00:04:49.448Z,7.30
2022-12-01T00:07:19.101Z,7.40
2022-12-01T00:10:04.844Z,7.40
2022-12-01T00:12:32.069Z,7.50
2022-12-01T00:15:01.198Z,7.40
2022-12-01T00:17:29.418Z,7.40
2022-12-01T00:19:57.608Z,7.40
2022-12-01T00:22:24.864Z,7.40
2022-12-01T00:24:52.180Z,7.30
2022-12-01T00:27:19.383Z,7.30
2022-12-01T00:29:47.223Z,7.30
2022-12-01T00:32:14.676Z,7.20
2022-12-01T00:34:41.971Z,7.20
2022-12-01T00:37:09.138Z,7.20
2022-12-01T00:39:36.292Z,7.20
2022-12-01T00:42:05.436Z,7.20
2022-12-01T00:44:34.583Z,7.10
2022-12-01T00:47:01.799Z,7.10
2022-12-01T00:49:29.156Z,7.10
2022-12-01T00:51:56.432Z,7.10
2022-12-01T00:54:23.745Z,7.00
2022-12-01T00:56:51.121Z,6.90
2022-12-01T00:59:18.664Z,6.90
2022-12-01T01:01:46.473Z,7.00
2022-12-01T01:04:13.880Z,7.00
2022-12-01T01:06:43.325Z,7.10
2022-12-01T01:09:11.067Z,7.10
2022-12-01T01:11:38.444Z,7.20
2022-12-01T01:14:05.956Z,7.20
2022-12-01T01:16:33.732Z,7.20
2022-12-01T01:19:00.957Z,7.20
2022-12-01T01:21:28.451Z,7.20
2022-12-01T01:23:56.312Z,7.20
2022-12-01T01:26:27.582Z,7.10
2022-12-01T01:28:56.681Z,7.00
2022-12-01T01:31:24.706Z,7.10
2022-12-01T01:33:52.007Z,7.10
2022-12-01T01:36:19.242Z,7.10
2022-12-01T01:38:46.752Z,7.00
2022-12-01T01:41:14.349Z,7.00
2022-12-01T01:43:52.229Z,7.10
2022-12-01T01:46:21.394Z,7.10
2022-12-01T01:48:53.348Z,7.10
2022-12-01T01:51:43.572Z,7.10
2022-12-01T01:54:22.112Z,7.10
2022-12-01T01:56:50.614Z,7.00
2022-12-01T01:59:20.269Z,7.00
2022-12-01T02:01:48.935Z,7.10
2022-12-01T02:04:16.131Z,7.00
2022-12-01T02:06:43.293Z,7.10
2022-12-01T02:09:11.520Z,7.10
2022-12-01T02:11:53.688Z,7.10
2022-12-01T02:14:31.771Z,7.10
2022-12-01T02:17:10.807Z,7.10
2022-12-01T02:19:51.908Z,7.20
2022-12-01T02:22:28.915Z,7.20
2022-12-01T02:25:01.917Z,7.20
2022-12-01T02:27:48.484Z,7.10
2022-12-01T02:30:27.394Z,7.10
2022-12-01T02:33:11.020Z,7.10
2022-12-01T02:35:44.022Z,7.10
2022-12-01T02:38:11.301Z,7.20
2022-12-01T02:40:43.593Z,7.20
2022-12-01T02:43:19.728Z,7.20
2022-12-01T02:46:09.973Z,7.20
2022-12-01T02:48:38.791Z,7.10
2022-12-01T02:51:28.958Z,7.10
2022-12-01T02:54:00.586Z,7.10
2022-12-01T02:56:27.824Z,7.00
2022-12-01T02:58:55.061Z,7.00
2022-12-01T03:01:22.327Z,7.00
2022-12-01T03:04:08.942Z,7.20
2022-12-01T03:06:37.209Z,7.20
2022-12-01T03:09:27.293Z,7.20
2022-12-01T03:12:07.437Z,7.10
2022-12-01T03:14:41.324Z,7.10
2022-12-01T03:17:10.736Z,7.20
2022-12-01T03:19:50.308Z,7.20
2022-12-01T03:22:23.222Z,7.20
2022-12-01T03:24:51.512Z,7.10
2022-12-01T03:27:20.228Z,7.10
2022-12-01T03:29:49.720Z,7.00
2022-12-01T03:32:35.711Z,7.10
2022-12-01T03:35:05.846Z,7.10
2022-12-01T03:37:36.222Z,7.10
2022-12-01T03:40:07.260Z,7.10
2022-12-01T03:42:43.399Z,7.10
2022-12-01T03:45:29.205Z,7.00
2022-12-01T03:47:56.426Z,7.00
2022-12-01T03:50:26.321Z,6.90
2022-12-01T03:52:56.563Z,6.80
2022-12-01T03:55:28.299Z,6.70
2022-12-01T03:58:02.785Z,6.80
2022-12-01T04:00:31.226Z,6.80
2022-12-01T04:02:59.171Z,6.80
2022-12-01T04:05:26.817Z,6.80
2022-12-01T04:07:54.294Z,6.90
2022-12-01T04:10:21.569Z,6.90
2022-12-01T04:12:49.042Z,6.90
2022-12-01T04:15:16.720Z,6.90
2022-12-01T04:17:44.537Z,6.90
2022-12-01T04:20:13.290Z,6.90
2022-12-01T04:22:40.499Z,6.90
2022-12-01T04:25:08.142Z,6.80
2022-12-01T04:27:35.482Z,6.80
2022-12-01T04:30:02.945Z,6.80
2022-12-01T04:32:30.132Z,6.90
2022-12-01T04:34:57.268Z,6.90
2022-12-01T04:37:24.423Z,6.90
2022-12-01T04:39:51.967Z,6.90
2022-12-01T04:42:19.356Z,6.80
2022-12-01T04:44:46.516Z,6.80
2022-12-01T04:47:13.692Z,6.80
2022-12-01T04:49:41.697Z,6.90
2022-12-01T04:52:08.833Z,6.90
2022-12-01T04:54:36.001Z,6.90
2022-12-01T04:57:03.261Z,6.80
2022-12-01T04:59:30.475Z,6.80
2022-12-01T05:01:57.830Z,6.70
2022-12-01T05:04:25.064Z,6.70
2022-12-01T05:06:54.047Z,6.70
2022-12-01T05:09:21.408Z,6.70
2022-12-01T05:11:48.578Z,6.70
2022-12-01T05:14:15.722Z,6.70
2022-12-01T05:16:42.954Z,6.70
2022-12-01T05:19:39.546Z,6.80
2022-12-01T05:22:06.717Z,6.80
2022-12-01T05:24:33.906Z,6.80
2022-12-01T05:27:01.170Z,6.80
2022-12-01T05:29:28.321Z,6.80
2022-12-01T05:31:55.598Z,6.80
2022-12-01T05:34:22.828Z,6.90
2022-12-01T05:36:50.017Z,6.90
2022-12-01T05:39:17.180Z,6.90
2022-12-01T05:41:44.322Z,6.90
2022-12-01T05:44:11.482Z,6.90
2022-12-01T05:46:38.640Z,7.00
2022-12-01T05:49:05.958Z,7.10
2022-12-01T05:51:35.445Z,7.10
2022-12-01T05:54:02.821Z,7.10
2022-12-01T05:56:30.043Z,7.10
2022-12-01T05:58:57.211Z,7.10
2022-12-01T06:01:24.415Z,7.10
2022-12-01T06:03:52.590Z,7.10
2022-12-01T06:06:20.943Z,7.10
2022-12-01T06:08:48.073Z,7.10
2022-12-01T06:11:15.224Z,7.20
2022-12-01T06:13:42.380Z,7.20
2022-12-01T06:16:09.599Z,7.20
2022-12-01T06:18:41.656Z,7.20
2022-12-01T06:21:08.841Z,7.20
2022-12-01T06:23:36.059Z,7.30
2022-12-01T06:26:03.398Z,7.30
2022-12-01T06:28:30.587Z,7.30
2022-12-01T06:31:02.951Z,7.30
2022-12-01T06:33:31.736Z,7.30
2022-12-01T06:36:03.500Z,7.30
2022-12-01T06:38:31.515Z,7.30
2022-12-01T06:40:58.667Z,7.30
2022-12-01T06:43:26.080Z,7.30
2022-12-01T06:45:57.817Z,7.30
2022-12-01T06:48:28.318Z,7.40
2022-12-01T06:50:58.688Z,7.40
2022-12-01T06:53:27.470Z,7.30
2022-12-01T06:55:55.136Z,7.30
2022-12-01T06:58:22.864Z,7.40
2022-12-01T07:00:52.236Z,7.40
2022-12-01T07:03:19.773Z,7.50
2022-12-01T07:05:54.934Z,7.50
2022-12-01T07:08:22.143Z,7.40
2022-12-01T07:10:56.239Z,7.50
2022-12-01T07:13:24.351Z,7.60
2022-12-01T07:15:52.921Z,7.60
2022-12-01T07:18:20.102Z,7.70
2022-12-01T07:20:47.440Z,7.80
2022-12-01T07:23:14.628Z,7.90
2022-12-01T07:25:41.979Z,7.90
2022-12-01T07:28:09.140Z,8.00
2022-12-01T07:30:36.315Z,8.00
2022-12-01T07:33:03.611Z,8.00
2022-12-01T07:35:30.812Z,8.10
2022-12-01T07:37:58.057Z,8.20
2022-12-01T07:40:25.243Z,8.40
2022-12-01T07:42:52.399Z,8.40
2022-12-01T07:45:19.625Z,8.40
2022-12-01T07:47:46.831Z,8.50
2022-12-01T07:50:14.150Z,8.60
2022-12-01T07:52:41.344Z,8.70
2022-12-01T07:55:08.611Z,8.80
2022-12-01T07:57:35.823Z,9.00
2022-12-01T08:00:03.940Z,9.10
2022-12-01T08:02:39.008Z,9.10
2022-12-01T08:05:06.322Z,9.20
2022-12-01T08:07:33.565Z,9.20
2022-12-01T08:10:00.798Z,9.30
2022-12-01T08:12:27.951Z,9.30
2022-12-01T08:14:55.117Z,9.30
2022-12-01T08:17:22.356Z,9.50
2022-12-01T08:19:49.744Z,9.60
2022-12-01T08:22:17.236Z,9.60
2022-12-01T08:24:44.411Z,9.70
2022-12-01T08:27:11.539Z,9.90
2022-12-01T08:29:38.703Z,10.10
2022-12-01T08:32:05.890Z,10.20
2022-12-01T08:34:35.247Z,10.30
2022-12-01T08:37:02.400Z,10.50
2022-12-01T08:39:29.634Z,10.70
2022-12-01T08:41:56.787Z,10.90
2022-12-01T08:44:24.047Z,11.20
2022-12-01T08:46:51.388Z,11.40
2022-12-01T08:49:18.583Z,11.60
2022-12-01T08:51:45.759Z,12.00
2022-12-01T08:54:12.985Z,12.50
2022-12-01T08:56:41.882Z,13.00
2022-12-01T08:59:09.143Z,13.30
2022-12-01T09:01:51.802Z,13.50
2022-12-01T09:04:23.385Z,13.70
2022-12-01T09:06:51.192Z,13.70
2022-12-01T09:09:19.748Z,13.80
2022-12-01T09:11:47.482Z,13.80
2022-12-01T09:14:15.639Z,13.90
2022-12-01T09:16:43.652Z,13.80
2022-12-01T09:19:13.232Z,14.10
2022-12-01T09:21:42.665Z,14.80
2022-12-01T09:24:10.517Z,15.30
2022-12-01T09:26:37.678Z,15.40
2022-12-01T09:29:06.468Z,15.40
2022-12-01T09:31:34.047Z,15.90
2022-12-01T09:34:02.186Z,16.20
2022-12-01T09:36:30.199Z,16.50
2022-12-01T09:38:57.838Z,17.30
2022-12-01T09:41:30.772Z,17.60
2022-12-01T09:44:05.966Z,18.40
2022-12-01T09:46:35.794Z,19.20
2022-12-01T09:49:03.577Z,19.90
2022-12-01T09:51:34.935Z,20.50
2022-12-01T09:54:03.093Z,20.60
2022-12-01T09:56:32.344Z,21.40
2022-12-01T09:59:00.650Z,21.10
2022-12-01T10:01:32.111Z,21.50
2022-12-01T10:04:02.374Z,21.70
2022-12-01T10:06:32.539Z,21.50
2022-12-01T10:08:59.758Z,22.00
2022-12-01T10:11:26.883Z,22.30
2022-12-01T10:13:54.105Z,21.10
2022-12-01T10:16:26.456Z,20.10
2022-12-01T10:19:08.366Z,19.60
2022-12-01T10:21:35.573Z,19.40
2022-12-01T10:24:25.356Z,19.00
2022-12-01T10:26:52.612Z,18.30
2022-12-01T10:29:26.911Z,17.30
2022-12-01T10:31:55.705Z,16.40
2022-12-01T10:34:28.583Z,15.60
2022-12-01T10:36:56.037Z,14.90
2022-12-01T10:39:29.368Z,14.40
2022-12-01T10:42:17.213Z,14.10
2022-12-01T10:44:45.200Z,13.80
2022-12-01T10:47:17.922Z,13.70
2022-12-01T10:49:45.172Z,13.60
2022-12-01T10:52:33.092Z,13.60
2022-12-01T10:55:00.496Z,13.60
2022-12-01T10:57:29.151Z,13.50
2022-12-01T11:00:05.878Z,13.30
2022-12-01T11:02:33.424Z,13.20
2022-12-01T11:05:05.313Z,13.00
2022-12-01T11:07:34.423Z,13.00
2022-12-01T11:10:04.700Z,13.00
2022-12-01T11:12:32.941Z,13.00
2022-12-01T11:15:00.332Z,13.00
2022-12-01T11:17:27.496Z,13.00
2022-12-01T11:19:54.849Z,12.90
2022-12-01T11:22:26.789Z,12.90
2022-12-01T11:24:53.922Z,13.00
2022-12-01T11:27:26.547Z,13.00
2022-12-01T11:29:59.529Z,13.00
2022-12-01T11:32:30.871Z,13.00
2022-12-01T11:35:00.823Z,12.90
2022-12-01T11:37:29.962Z,12.90
2022-12-01T11:40:04.509Z,12.90
2022-12-01T11:42:34.364Z,12.80
2022-12-01T11:45:08.133Z,12.80
2022-12-01T11:47:35.450Z,12.80
2022-12-01T11:50:22.591Z,12.70
2022-12-01T11:52:49.836Z,12.70
2022-12-01T11:55:17.087Z,12.60
2022-12-01T11:57:45.620Z,12.60
2022-12-01T12:00:16.832Z,12.60
2022-12-01T12:02:44.193Z,12.60
2022-12-01T12:05:14.465Z,12.70
2022-12-01T12:07:48.365Z,12.80
2022-12-01T12:10:27.763Z,13.00
2022-12-01T12:13:07.097Z,13.10
2022-12-01T12:15:52.637Z,13.10
2022-12-01T12:18:19.812Z,13.10
2022-12-01T12:21:05.321Z,13.30
2022-12-01T12:23:32.651Z,13.30
2022-12-01T12:26:00.695Z,13.30
2022-12-01T12:28:47.129Z,13.30
2022-12-01T12:31:33.137Z,13.20
2022-12-01T12:34:22.794Z,13.30
2022-12-01T12:36:58.971Z,13.20
2022-12-01T12:39:35.526Z,13.20
2022-12-01T12:42:06.124Z,13.10
2022-12-01T12:44:42.483Z,13.10
2022-12-01T12:47:19.879Z,13.00
2022-12-01T12:50:05.636Z,12.90
2022-12-01T12:52:33.252Z,12.90
2022-12-01T12:55:03.997Z,12.80
2022-12-01T12:57:36.573Z,12.70
2022-12-01T13:00:13.865Z,12.70
2022-12-01T13:02:46.490Z,12.60
2022-12-01T13:05:14.560Z,12.70
2022-12-01T13:07:50.570Z,12.70
2022-12-01T13:10:22.743Z,12.70
2022-12-01T13:12:56.422Z,12.80
2022-12-01T13:15:25.159Z,12.80
2022-12-01T13:18:16.249Z,12.90
2022-12-01T13:20:43.779Z,12.90
2022-12-01T13:23:14.700Z,13.00
2022-12-01T13:25:42.920Z,13.00
2022-12-01T13:28:22.437Z,13.00
2022-12-01T13:31:00.234Z,13.00
2022-12-01T13:33:27.628Z,13.00
2022-12-01T13:36:22.629Z,13.10
2022-12-01T13:38:42.280Z,13.10
2022-12-01T13:41:12.783Z,13.10
2022-12-01T13:43:54.468Z,13.00
2022-12-01T13:46:22.690Z,12.90
2022-12-01T13:48:51.655Z,12.80
2022-12-01T13:51:18.832Z,12.80
2022-12-01T13:53:56.777Z,12.70
2022-12-01T13:56:26.648Z,12.60
2022-12-01T13:58:54.768Z,12.50
2022-12-01T14:01:22.656Z,12.40
2022-12-01T14:03:53.220Z,12.30
2022-12-01T14:06:38.973Z,12.30
2022-12-01T14:09:12.337Z,12.20
2022-12-01T14:11:39.498Z,12.10
2022-12-01T14:14:09.667Z,12.10
2022-12-01T14:16:57.369Z,12.10
2022-12-01T14:19:30.440Z,12.00
2022-12-01T14:21:57.883Z,12.00
2022-12-01T14:24:28.500Z,11.90
2022-12-01T14:26:56.052Z,11.90
2022-12-01T14:29:25.068Z,11.80
2022-12-01T14:31:52.277Z,11.70
2022-12-01T14:34:20.967Z,11.70
2022-12-01T14:37:02.528Z,11.60
2022-12-01T14:39:31.907Z,11.60
2022-12-01T14:42:01.330Z,11.50
2022-12-01T14:44:47.751Z,11.40
2022-12-01T14:47:22.850Z,11.30
2022-12-01T14:49:49.984Z,11.30
2022-12-01T14:52:37.412Z,11.20
2022-12-01T14:55:14.001Z,11.30
2022-12-01T14:57:44.120Z,11.20
2022-12-01T15:00:15.575Z,11.10
2022-12-01T15:02:44.088Z,11.00
2022-12-01T15:05:13.140Z,10.90
2022-12-01T15:07:45.633Z,10.80
2022-12-01T15:10:20.758Z,10.70
2022-12-01T15:12:48.903Z,10.70
2022-12-01T15:15:23.947Z,10.70
2022-12-01T15:17:52.530Z,10.60
2022-12-01T15:20:34.486Z,10.60
2022-12-01T15:23:02.445Z,10.50
2022-12-01T15:25:32.406Z,10.50
2022-12-01T15:28:16.176Z,10.50
2022-12-01T15:30:44.184Z,10.40
2022-12-01T15:33:21.606Z,10.30
2022-12-01T15:35:53.437Z,10.30
2022-12-01T15:38:25.788Z,10.30
2022-12-01T15:41:21.310Z,10.20
2022-12-01T15:43:41.422Z,10.10
2022-12-01T15:46:14.166Z,10.10
2022-12-01T15:48:41.658Z,10.00
2022-12-01T15:51:15.375Z,10.00
2022-12-01T15:53:51.531Z,9.90
2022-12-01T15:56:24.412Z,9.80
2022-12-01T15:58:51.710Z,9.70
2022-12-01T16:01:19.883Z,9.70
2022-12-01T16:03:47.182Z,9.70
2022-12-01T16:06:14.352Z,9.60
2022-12-01T16:08:41.751Z,9.60
2022-12-01T16:11:10.671Z,9.60
2022-12-01T16:13:46.811Z,9.50
2022-12-01T16:16:32.792Z,9.50
2022-12-01T16:19:02.270Z,9.40
2022-12-01T16:21:31.472Z,9.40
2022-12-01T16:23:59.695Z,9.30
2022-12-01T16:26:27.585Z,9.30
2022-12-01T16:28:55.627Z,9.20
2022-12-01T16:31:22.913Z,9.20
2022-12-01T16:34:13.919Z,9.10
2022-12-01T16:36:49.543Z,9.10
2022-12-01T16:39:16.859Z,9.00
2022-12-01T16:41:44.858Z,9.00
2022-12-01T16:44:28.180Z,8.90
2022-12-01T16:46:56.253Z,8.90
2022-12-01T16:49:23.528Z,8.80
2022-12-01T16:51:55.766Z,8.80
2022-12-01T16:54:23.921Z,8.70
2022-12-01T16:56:51.331Z,8.60
2022-12-01T16:59:18.574Z,8.50
2022-12-01T17:01:45.762Z,8.40
2022-12-01T17:04:13.207Z,8.30
2022-12-01T17:06:40.425Z,8.20
2022-12-01T17:09:07.609Z,8.20
2022-12-01T17:11:34.925Z,8.10
2022-12-01T17:14:02.184Z,8.20
2022-12-01T17:16:29.350Z,8.10
2022-12-01T17:18:56.580Z,8.10
2022-12-01T17:21:23.743Z,8.10
2022-12-01T17:23:50.972Z,8.10
2022-12-01T17:26:18.927Z,8.00
2022-12-01T17:28:47.114Z,8.00
2022-12-01T17:31:14.636Z,7.90
2022-12-01T17:33:42.129Z,7.90
2022-12-01T17:36:13.963Z,7.80
2022-12-01T17:38:42.393Z,7.70
2022-12-01T17:41:11.232Z,7.70
2022-12-01T17:43:38.766Z,7.60
2022-12-01T17:46:07.280Z,7.60
2022-12-01T17:48:38.690Z,7.60
2022-12-01T17:51:06.521Z,7.50
2022-12-01T17:53:33.714Z,7.50
2022-12-01T17:56:01.119Z,7.40
2022-12-01T17:58:29.955Z,7.40
2022-12-01T18:00:57.106Z,7.50
2022-12-01T18:03:24.332Z,7.50
2022-12-01T18:05:55.427Z,7.40
2022-12-01T18:08:22.825Z,7.50
2022-12-01T18:10:49.971Z,7.60
2022-12-01T18:13:19.257Z,7.60
2022-12-01T18:15:47.616Z,7.70
2022-12-01T18:18:14.904Z,7.60
2022-12-01T18:20:43.333Z,7.50
2022-12-01T18:23:11.263Z,7.50
2022-12-01T18:25:39.167Z,7.40
2022-12-01T18:28:06.924Z,7.40
2022-12-01T18:30:34.615Z,7.40
2022-12-01T18:33:02.027Z,7.50
2022-12-01T18:35:31.959Z,7.40
2022-12-01T18:37:59.448Z,7.40
2022-12-01T18:40:26.730Z,7.40
2022-12-01T18:42:53.875Z,7.40
2022-12-01T18:45:21.552Z,7.40
2022-12-01T18:47:50.728Z,7.40
2022-12-01T18:50:17.888Z,7.40
2022-12-01T18:52:45.058Z,7.40
2022-12-01T18:55:12.246Z,7.50
2022-12-01T18:57:39.425Z,7.50
2022-12-01T19:00:07.525Z,7.40
2022-12-01T19:02:34.888Z,7.40
2022-12-01T19:05:02.164Z,7.40
2022-12-01T19:07:30.131Z,7.50
2022-12-01T19:09:58.520Z,7.50
2022-12-01T19:12:25.865Z,7.40
2022-12-01T19:14:54.241Z,7.40
2022-12-01T19:17:21.822Z,7.40
2022-12-01T19:19:49.027Z,7.50
2022-12-01T19:22:18.219Z,7.50
2022-12-01T19:24:50.196Z,7.40
2022-12-01T19:27:18.212Z,7.50
2022-12-01T19:29:45.452Z,7.50
2022-12-01T19:32:13.451Z,7.60
2022-12-01T19:34:40.601Z,7.60
2022-12-01T19:37:07.892Z,7.60
2022-12-01T19:39:35.233Z,7.50
2022-12-01T19:42:02.426Z,7.50
2022-12-01T19:44:29.625Z,7.50
2022-12-01T19:46:57.109Z,7.50
2022-12-01T19:49:24.333Z,7.50
2022-12-01T19:51:51.565Z,7.40
2022-12-01T19:54:19.503Z,7.50
2022-12-01T19:56:46.824Z,7.50
2022-12-01T19:59:14.930Z,7.50
2022-12-01T20:01:42.264Z,7.40
2022-12-01T20:04:09.614Z,7.50
2022-12-01T20:06:37.157Z,7.40
2022-12-01T20:09:05.228Z,7.30
2022-12-01T20:11:35.431Z,7.40
2022-12-01T20:14:04.035Z,7.40
2022-12-01T20:16:32.268Z,7.40
2022-12-01T20:19:00.764Z,7.40
2022-12-01T20:21:29.195Z,7.40
2022-12-01T20:23:58.084Z,7.30
2022-12-01T20:26:30.376Z,7.20
2022-12-01T20:28:59.840Z,7.30
2022-12-01T20:31:28.159Z,7.30
2022-12-01T20:33:56.692Z,7.20
2022-12-01T20:36:23.890Z,7.20
2022-12-01T20:38:51.105Z,7.10
2022-12-01T20:41:18.767Z,7.10
2022-12-01T20:43:45.990Z,7.10
2022-12-01T20:46:13.923Z,7.10
2022-12-01T20:48:41.203Z,6.90
2022-12-01T20:51:08.734Z,6.90
2022-12-01T20:53:36.215Z,6.90
2022-12-01T20:56:07.713Z,6.90
2022-12-01T20:58:37.641Z,6.90
2022-12-01T21:01:08.616Z,7.00
2022-12-01T21:03:36.948Z,7.00
2022-12-01T21:06:04.460Z,7.00
2022-12-01T21:08:31.644Z,7.00
2022-12-01T21:11:03.342Z,7.10
2022-12-01T21:13:42.229Z,7.10
2022-12-01T21:16:13.888Z,7.10
2022-12-01T21:18:41.581Z,7.10
2022-12-01T21:21:28.424Z,7.20
2022-12-01T21:24:07.799Z,7.20
2022-12-01T21:26:38.754Z,7.20
2022-12-01T21:29:26.186Z,7.30
2022-12-01T21:31:58.871Z,7.30
2022-12-01T21:34:27.227Z,7.40
2022-12-01T21:36:56.140Z,7.40
2022-12-01T21:39:24.033Z,7.50
2022-12-01T21:41:56.304Z,7.50
2022-12-01T21:44:26.320Z,7.50
2022-12-01T21:46:56.029Z,7.60
2022-12-01T21:49:32.286Z,7.60
2022-12-01T21:51:59.563Z,7.70
2022-12-01T21:54:28.711Z,7.70
2022-12-01T21:56:57.360Z,7.80
2022-12-01T21:59:24.746Z,7.90
2022-12-01T22:01:56.279Z,7.90
2022-12-01T22:04:24.711Z,7.90
2022-12-01T22:06:53.218Z,7.80
2022-12-01T22:09:23.533Z,7.80
2022-12-01T22:11:55.076Z,7.80
2022-12-01T22:14:24.067Z,7.80
2022-12-01T22:16:54.279Z,7.80
2022-12-01T22:19:21.431Z,7.80
2022-12-01T22:21:59.589Z,7.70
2022-12-01T22:24:29.295Z,7.60
2022-12-01T22:27:19.522Z,7.60
2022-12-01T22:29:47.684Z,7.60
2022-12-01T22:32:14.810Z,7.60
2022-12-01T22:34:43.771Z,7.60
2022-12-01T22:37:16.602Z,7.60
2022-12-01T22:39:45.227Z,7.60
2022-12-01T22:42:19.390Z,7.60
2022-12-01T22:44:46.656Z,7.50
2022-12-01T22:47:14.549Z,7.40
2022-12-01T22:49:42.071Z,7.50
2022-12-01T22:52:18.929Z,7.50
2022-12-01T22:54:49.023Z,7.60
2022-12-01T22:57:36.627Z,7.70
2022-12-01T23:00:14.986Z,7.70
2022-12-01T23:02:43.571Z,7.70
2022-12-01T23:05:30.699Z,7.70
2022-12-01T23:07:58.075Z,7.80
2022-12-01T23:10:28.536Z,7.80
2022-12-01T23:12:57.888Z,7.90
2022-12-01T23:15:34.235Z,8.00
2022-12-01T23:18:16.410Z,8.00
2022-12-01T23:20:44.447Z,8.10
2022-12-01T23:23:18.243Z,8.20
2022-12-01T23:25:46.064Z,8.30
2022-12-01T23:28:13.701Z,8.40
2022-12-01T23:30:42.495Z,8.50
2022-12-01T23:33:14.403Z,8.60
2022-12-01T23:35:45.171Z,8.60
2022-12-01T23:38:18.523Z,8.70
2022-12-01T23:40:45.867Z,8.70
2022-12-01T23:43:17.579Z,8.80
2022-12-01T23:45:45.398Z,8.80
2022-12-01T23:48:16.328Z,8.80
2022-12-01T23:50:43.492Z,8.80
2022-12-01T23:53:18.537Z,8.80
2022-12-01T23:55:45.708Z,8.80
2022-12-01T23:58:13.483Z,8.80
